Time;durP1;ratioP1;P1;durP2;ratioP2;P2;SDS_P1;SDS_P2;PMS_P1;PMS_P2;Temp;Humidity;BMP_temperature;BMP_pressure;BME280_temperature;BME280_humidity;BME280_pressure;Samples;Min_cycle;Max_cycle;Signal;HPM_P1;HPM_P2
2021/01/17 00:00:36;;;;;;;27.83;18.97;;;;;;;-144.99;95.86;52576.50;5027335;28;20625;-76
2021/01/17 00:03:02;;;;;;;25.30;17.30;;;;;;;-144.99;95.84;52623.38;5026814;28;20743;-74
2021/01/17 00:05:30;;;;;;;30.43;18.67;;;;;;;-144.99;96.12;52623.38;5021571;28;20659;-78
2021/01/17 00:07:57;;;;;;;27.20;19.00;;;;;;;-144.99;96.35;52562.25;5028793;28;20687;-77
2021/01/17 00:10:25;;;;;;;26.17;18.63;;;;;;;-144.99;96.33;52613.19;5029143;28;20700;-76
2021/01/17 00:12:52;;;;;;;28.53;17.27;;;;;;;-144.99;96.31;52584.66;5025663;28;20613;-77
2021/01/17 00:15:19;;;;;;;31.83;19.00;;;;;;;-144.99;96.38;52590.78;5028161;28;20655;-76
2021/01/17 00:17:46;;;;;;;33.33;19.10;;;;;;;-144.99;96.33;52615.25;5027815;28;21374;-76
2021/01/17 00:20:14;;;;;;;23.67;15.10;;;;;;;-144.99;96.31;52631.53;5025549;28;20748;-77
2021/01/17 00:22:41;;;;;;;27.57;17.10;;;;;;;-144.99;96.47;52586.69;5020393;28;20640;-78
2021/01/17 00:25:11;;;;;;;27.73;18.63;;;;;;;-144.99;96.43;52619.31;5026726;28;20637;-76
2021/01/17 00:27:38;;;;;;;35.13;19.13;;;;;;;-144.99;96.47;52558.16;5027156;28;20752;-77
2021/01/17 00:30:06;;;;;;;25.23;19.63;;;;;;;-144.99;96.36;52607.09;5027415;28;20648;-77
2021/01/17 00:32:33;;;;;;;34.47;20.10;;;;;;;-144.99;96.40;52611.16;5027290;28;20690;-77
2021/01/17 00:34:59;;;;;;;36.63;19.73;;;;;;;-144.99;96.47;52574.47;5025348;28;21205;-75
2021/01/17 00:37:25;;;;;;;25.70;17.40;;;;;;;-144.99;96.75;52609.13;5022992;28;20748;-75
2021/01/17 00:39:51;;;;;;;29.23;19.30;;;;;;;-144.99;96.68;52566.31;5025600;28;20669;-75
2021/01/17 00:42:19;;;;;;;28.53;20.10;;;;;;;-144.99;96.77;52605.03;5028750;28;20683;-75
2021/01/17 00:44:45;;;;;;;26.40;18.83;;;;;;;-144.99;96.78;52615.25;5027132;28;21198;-76
2021/01/17 00:47:12;;;;;;;29.83;19.83;;;;;;;-144.99;96.85;52633.59;5024345;28;20640;-75
2021/01/17 00:49:38;;;;;;;35.70;19.90;;;;;;;-144.99;96.89;52570.38;5024281;28;20669;-75
2021/01/17 00:52:04;;;;;;;33.47;19.00;;;;;;;-144.99;96.92;52570.38;5028310;28;20724;-75
2021/01/17 00:54:31;;;;;;;27.90;19.60;;;;;;;-144.99;96.83;52558.16;5020793;28;20644;-77
2021/01/17 00:57:02;;;;;;;31.70;20.60;;;;;;;-144.99;96.73;52611.16;5027466;28;20649;-76
2021/01/17 00:59:29;;;;;;;32.47;19.67;;;;;;;-144.99;96.59;52586.69;5026245;28;20664;-78
2021/01/17 01:01:56;;;;;;;29.17;19.57;;;;;;;-144.99;96.61;52574.47;5026698;28;20636;-77
2021/01/17 01:04:22;;;;;;;30.17;20.10;;;;;;;-144.99;96.64;52570.38;5025753;28;21219;-76
2021/01/17 01:06:50;;;;;;;31.43;20.60;;;;;;;-144.99;96.57;52615.25;5027374;28;20608;-76
2021/01/17 01:09:16;;;;;;;28.93;20.43;;;;;;;-144.99;96.64;52603.00;5023621;28;20672;-77
2021/01/17 01:11:43;;;;;;;29.80;18.53;;;;;;;-144.99;96.45;52619.31;5027351;28;20636;-77
2021/01/17 01:14:09;;;;;;;29.40;19.13;;;;;;;-144.99;96.64;52621.34;5025922;28;20652;-76
2021/01/17 01:16:36;;;;;;;32.87;20.47;;;;;;;-144.99;96.66;52582.63;5026369;28;20676;-77
2021/01/17 01:19:03;;;;;;;39.00;21.50;;;;;;;-144.99;96.74;52576.50;5023905;28;20694;-76
2021/01/17 01:21:31;;;;;;;31.03;18.43;;;;;;;-144.99;96.61;52639.69;5026939;28;20625;-76
2021/01/17 01:23:58;;;;;;;25.07;19.17;;;;;;;-144.99;96.54;52594.84;5026213;28;20747;-75
2021/01/17 01:26:24;;;;;;;32.23;19.63;;;;;;;-144.99;96.59;52578.53;5025284;28;21071;-76
2021/01/17 01:28:52;;;;;;;32.33;21.80;;;;;;;-144.99;96.73;52590.78;5062891;22;20674;-78
2021/01/17 01:31:19;;;;;;;25.93;18.83;;;;;;;-144.99;96.65;52643.78;5053662;28;20620;-78
2021/01/17 01:33:46;;;;;;;27.33;19.37;;;;;;;-144.99;96.78;52598.94;5057809;28;20866;-78
2021/01/17 01:36:18;;;;;;;31.57;19.53;;;;;;;-144.99;96.94;52572.44;5055213;28;21218;-78
2021/01/17 01:38:45;;;;;;;27.17;18.57;;;;;;;-144.99;96.94;52594.84;5050506;28;21846;-79
2021/01/17 01:41:11;;;;;;;32.47;20.67;;;;;;;-144.99;96.85;52623.38;5056910;28;20730;-76
2021/01/17 01:43:37;;;;;;;27.30;19.27;;;;;;;-144.99;96.91;52582.63;5064096;28;20726;-76
2021/01/17 01:46:03;;;;;;;27.67;20.40;;;;;;;-144.99;96.90;52615.25;5062349;28;21102;-76
2021/01/17 01:48:31;;;;;;;33.87;21.97;;;;;;;-144.99;96.85;52607.09;5057915;28;21074;-75
2021/01/17 01:50:59;;;;;;;28.40;20.43;;;;;;;-144.99;96.96;52611.16;5050212;28;20651;-76
2021/01/17 01:53:25;;;;;;;35.60;21.77;;;;;;;-144.99;96.80;52619.31;5059683;28;20714;-75
2021/01/17 01:55:52;;;;;;;33.23;22.27;;;;;;;-144.99;96.83;52570.38;5053377;28;20682;-75
2021/01/17 01:58:22;;;;;;;31.43;22.10;;;;;;;-144.99;96.85;52609.13;5051427;28;20825;-75
2021/01/17 02:00:48;;;;;;;36.50;20.23;;;;;;;-144.99;96.95;52594.84;5053125;28;20757;-75
2021/01/17 02:03:14;;;;;;;30.47;17.70;;;;;;;-144.99;96.86;52558.16;5056759;28;20704;-75
2021/01/17 02:05:40;;;;;;;33.13;20.83;;;;;;;-144.99;96.89;52594.84;5071300;28;20659;-74
2021/01/17 02:08:21;;;;;;;38.07;20.20;;;;;;;-144.99;96.85;52547.97;5069209;28;20859;-76
2021/01/17 02:10:47;;;;;;;32.13;19.97;;;;;;;-144.99;97.03;52566.31;4705359;28;10001072;-72
2021/01/17 02:13:20;;;;;;;28.23;19.80;;;;;;;-144.99;97.12;52594.84;5052940;28;20658;-75
2021/01/17 02:15:49;;;;;;;31.10;17.30;;;;;;;-144.99;97.13;52570.38;5059471;28;20674;-75
2021/01/17 02:18:17;;;;;;;32.03;18.60;;;;;;;-144.99;97.04;52580.59;5063287;28;20739;-78
2021/01/17 02:20:43;;;;;;;27.77;18.43;;;;;;;-144.99;96.98;52578.53;5069241;28;20666;-76
2021/01/17 02:23:16;;;;;;;30.20;16.80;;;;;;;-144.99;97.09;52578.53;5058547;28;20628;-75
2021/01/17 02:25:43;;;;;;;29.10;17.97;;;;;;;-144.99;97.18;52580.59;5066729;28;20630;-76
2021/01/17 02:28:12;;;;;;;33.10;19.27;;;;;;;-144.99;97.21;52609.13;5066443;28;20623;-75
2021/01/17 02:30:45;;;;;;;27.77;19.93;;;;;;;-144.99;97.20;52596.88;5061356;28;20637;-76
2021/01/17 02:33:13;;;;;;;29.50;18.70;;;;;;;-144.99;97.09;52594.84;5068459;28;20639;-75
2021/01/17 02:35:40;;;;;;;26.67;18.57;;;;;;;-144.99;97.01;52558.16;5065589;28;20650;-74
2021/01/17 02:38:27;;;;;;;29.07;17.77;;;;;;;-144.99;97.06;52586.69;5070442;28;20833;-75
2021/01/17 02:41:07;;;;;;;26.83;16.07;;;;;;;-144.99;96.97;52590.78;5061754;28;21361;-74
2021/01/17 02:43:34;;;;;;;24.40;16.77;;;;;;;-144.99;97.06;52592.81;5062594;28;21163;-75
2021/01/17 02:46:00;;;;;;;28.80;17.63;;;;;;;-144.99;97.10;52578.53;5064295;28;21090;-74
2021/01/17 02:48:26;;;;;;;24.23;17.17;;;;;;;-144.99;97.15;52578.53;5062889;28;20958;-74
2021/01/17 02:50:53;;;;;;;31.37;19.33;;;;;;;-144.99;97.36;52554.09;5069000;28;20619;-75
2021/01/17 02:53:25;;;;;;;27.97;18.60;;;;;;;-144.99;97.08;52590.78;5067505;28;20725;-74
2021/01/17 02:55:53;;;;;;;31.27;20.50;;;;;;;-144.99;97.27;52590.78;5064613;28;21233;-75
2021/01/17 02:58:22;;;;;;;24.60;16.93;;;;;;;-144.99;97.35;52566.31;5061445;28;20674;-74
2021/01/17 03:00:53;;;;;;;26.23;16.00;;;;;;;-144.99;97.34;52570.38;5063067;28;20667;-75
2021/01/17 03:03:21;;;;;;;30.77;17.80;;;;;;;-144.99;97.46;52615.25;5065308;28;21081;-74
2021/01/17 03:05:49;;;;;;;26.00;16.87;;;;;;;-144.99;97.45;52582.63;5070257;28;21205;-74
2021/01/17 03:08:17;;;;;;;33.13;19.97;;;;;;;-144.99;97.38;52580.59;5062048;28;20668;-73
2021/01/17 03:10:43;;;;;;;33.63;18.60;;;;;;;-144.99;97.43;52607.09;5059485;28;20668;-77
2021/01/17 03:13:10;;;;;;;20.67;15.70;;;;;;;-144.99;97.47;52578.53;5058861;28;20651;-76
2021/01/17 03:15:40;;;;;;;24.73;14.73;;;;;;;-144.99;97.36;52560.19;5054254;28;20624;-75
2021/01/17 03:18:06;;;;;;;28.53;17.77;;;;;;;-144.99;97.30;52558.16;5061185;28;20728;-75
2021/01/17 03:20:32;;;;;;;25.23;15.97;;;;;;;-144.99;97.31;52550.00;5068257;28;20650;-76
2021/01/17 03:22:59;;;;;;;22.13;15.93;;;;;;;-144.99;97.07;52603.00;5059575;28;21260;-76
2021/01/17 03:25:25;;;;;;;27.77;17.03;;;;;;;-144.99;97.10;52586.69;5063897;28;20671;-75
2021/01/17 03:27:51;;;;;;;27.63;17.40;;;;;;;-144.99;97.19;52554.09;5055112;28;20722;-76
2021/01/17 03:30:18;;;;;;;26.67;17.77;;;;;;;-144.99;97.20;52596.88;5062360;28;20678;-76
2021/01/17 03:32:45;;;;;;;39.50;18.53;;;;;;;-144.99;97.37;52580.59;5057536;28;20659;-75
2021/01/17 03:35:11;;;;;;;24.73;18.30;;;;;;;-144.99;97.35;52564.28;5056871;28;20627;-75
2021/01/17 03:37:37;;;;;;;22.17;15.27;;;;;;;-144.99;97.43;52564.28;5057180;28;20675;-76
2021/01/17 03:40:05;;;;;;;34.47;17.37;;;;;;;-144.99;97.39;52607.09;5068574;28;20690;-76
2021/01/17 03:42:31;;;;;;;26.67;16.27;;;;;;;-144.99;97.32;52594.84;5058533;28;21013;-77
2021/01/17 03:44:57;;;;;;;24.87;17.37;;;;;;;-144.99;97.26;52554.09;5060266;28;20678;-75
2021/01/17 03:47:23;;;;;;;28.03;17.30;;;;;;;-144.99;97.18;52594.84;5059783;28;20873;-76
2021/01/17 03:49:50;;;;;;;32.37;18.90;;;;;;;-144.99;97.13;52590.78;5064288;28;20682;-77
2021/01/17 03:52:16;;;;;;;29.23;19.07;;;;;;;-144.99;97.24;52554.09;5059893;28;20726;-76
2021/01/17 03:54:42;;;;;;;27.83;19.23;;;;;;;-144.99;97.14;52598.94;5055679;28;20639;-75
2021/01/17 03:57:09;;;;;;;25.13;17.43;;;;;;;-144.99;96.99;52615.25;5062774;28;21300;-76
2021/01/17 03:59:35;;;;;;;26.20;19.10;;;;;;;-144.99;96.97;52594.84;5064861;28;20656;-76
2021/01/17 04:02:01;;;;;;;31.63;17.57;;;;;;;-144.99;96.92;52582.63;5067028;28;20661;-76
2021/01/17 04:04:27;;;;;;;31.77;16.70;;;;;;;-144.99;96.87;52594.84;5055428;28;21240;-76
2021/01/17 04:06:54;;;;;;;28.17;17.07;;;;;;;-144.99;96.91;52584.66;5067071;28;20684;-76
2021/01/17 04:09:20;;;;;;;22.53;15.60;;;;;;;-144.99;96.90;52588.75;5061209;28;20651;-75
2021/01/17 04:11:48;;;;;;;31.93;21.83;;;;;;;-144.99;96.98;52576.50;5060829;28;20669;-76
2021/01/17 04:14:14;;;;;;;24.10;16.30;;;;;;;-144.99;96.92;52619.31;5056109;28;20729;-76
2021/01/17 04:16:40;;;;;;;28.47;16.33;;;;;;;-144.99;97.05;52586.69;5067965;28;20750;-75
2021/01/17 04:19:06;;;;;;;25.93;17.50;;;;;;;-144.99;97.09;52586.69;5064370;28;20677;-75
2021/01/17 04:21:35;;;;;;;25.27;17.73;;;;;;;-144.99;96.92;52594.84;5062173;28;20746;-77
2021/01/17 04:24:03;;;;;;;23.13;15.87;;;;;;;-144.99;96.93;52558.16;5062653;28;20611;-75
2021/01/17 04:26:29;;;;;;;22.90;15.27;;;;;;;-144.99;96.92;52598.94;5062601;28;20650;-77
2021/01/17 04:28:55;;;;;;;34.70;19.63;;;;;;;-144.99;96.97;52570.38;5067518;28;21083;-76
2021/01/17 04:31:21;;;;;;;25.87;17.00;;;;;;;-144.99;96.82;52564.28;5058248;28;20666;-78
2021/01/17 04:33:47;;;;;;;22.43;15.87;;;;;;;-144.99;96.73;52590.78;5054817;28;20647;-77
2021/01/17 04:36:13;;;;;;;26.67;19.00;;;;;;;-144.99;96.77;52607.09;5065750;28;20734;-77
2021/01/17 04:38:39;;;;;;;20.40;15.40;;;;;;;-144.99;96.74;52639.69;5062729;28;20697;-78
2021/01/17 04:41:06;;;;;;;27.37;16.90;;;;;;;-144.99;96.79;52566.31;5065331;28;21180;-76
2021/01/17 04:43:36;;;;;;;22.57;16.07;;;;;;;-144.99;96.62;52574.47;5062091;28;20861;-78
2021/01/17 04:46:03;;;;;;;24.40;18.03;;;;;;;-144.99;96.52;52584.66;5065432;28;20667;-78
2021/01/17 04:48:31;;;;;;;23.97;15.93;;;;;;;-144.99;96.58;52598.94;5056928;28;20667;-77
2021/01/17 04:51:01;;;;;;;28.70;17.30;;;;;;;-144.99;96.66;52611.16;5065549;28;20727;-76
2021/01/17 04:53:29;;;;;;;21.90;15.97;;;;;;;-144.99;96.73;52574.47;5058078;28;20628;-77
2021/01/17 04:56:13;;;;;;;24.27;15.93;;;;;;;-144.99;96.85;52586.69;5074270;28;20827;-76
2021/01/17 04:58:44;;;;;;;30.50;17.47;;;;;;;-144.99;96.77;52558.16;5074502;28;20670;-79
2021/01/17 05:01:22;;;;;;;18.87;14.27;;;;;;;-144.99;96.75;52603.00;5064493;28;20649;-79
2021/01/17 05:04:08;;;;;;;21.10;15.47;;;;;;;-144.99;96.82;52582.63;5065515;28;20653;-79
2021/01/17 05:06:39;;;;;;;22.23;15.77;;;;;;;-144.99;96.71;52582.63;5063038;28;21095;-78
2021/01/17 05:09:06;;;;;;;28.23;17.63;;;;;;;-144.99;96.80;52590.78;5060832;28;20651;-78
2021/01/17 05:11:38;;;;;;;34.73;19.87;;;;;;;-144.99;96.86;52521.47;5053122;28;21299;-78
2021/01/17 05:14:12;;;;;;;51.27;23.00;;;;;;;-144.99;97.15;52603.00;5056811;28;21275;-79
2021/01/17 05:16:40;;;;;;;36.70;24.67;;;;;;;-144.99;97.25;52568.34;5065079;28;20655;-76
2021/01/17 05:19:11;;;;;;;36.07;24.30;;;;;;;-144.99;97.45;52578.53;5065713;28;21246;-76
2021/01/17 05:21:40;;;;;;;47.03;25.93;;;;;;;-144.99;97.32;52603.00;5065588;28;20619;-77
2021/01/17 05:24:12;;;;;;;34.00;23.73;;;;;;;-144.99;97.18;52594.84;5058885;28;20733;-76
2021/01/17 05:26:41;;;;;;;33.33;22.80;;;;;;;-144.99;97.17;52594.84;5058415;28;20651;-76
2021/01/17 05:29:07;;;;;;;24.63;17.03;;;;;;;-144.99;96.92;52590.78;5057813;28;20659;-76
2021/01/17 05:31:34;;;;;;;31.60;21.67;;;;;;;-144.99;96.99;52647.84;5066452;28;21217;-75
2021/01/17 05:34:01;;;;;;;29.43;19.73;;;;;;;-144.99;96.89;52603.00;5060535;28;21196;-74
2021/01/17 05:36:27;;;;;;;30.37;19.43;;;;;;;-144.99;96.96;52619.31;5056867;28;20776;-75
2021/01/17 05:39:04;;;;;;;24.43;15.93;;;;;;;-144.99;96.93;52566.31;5066856;28;20720;-79
2021/01/17 05:41:30;;;;;;;30.60;19.30;;;;;;;-144.99;96.88;52566.31;5059304;28;20624;-75
2021/01/17 05:43:57;;;;;;;27.07;15.83;;;;;;;-144.99;96.80;52586.69;5058731;28;20727;-74
2021/01/17 05:46:23;;;;;;;29.80;18.13;;;;;;;-144.99;96.85;52574.47;5059468;28;20696;-75
2021/01/17 05:48:50;;;;;;;23.93;16.00;;;;;;;-144.99;96.85;52584.66;5060711;28;20650;-76
2021/01/17 05:51:26;;;;;;;27.60;19.13;;;;;;;-144.99;96.91;52596.88;5065338;28;20631;-75
2021/01/17 05:53:55;;;;;;;28.10;17.20;;;;;;;-144.99;96.91;52605.03;5063518;28;20615;-75
2021/01/17 05:56:21;;;;;;;27.07;17.97;;;;;;;-144.99;96.97;52574.47;5066590;28;20631;-75
2021/01/17 05:58:47;;;;;;;26.17;17.93;;;;;;;-144.99;97.03;52611.16;5064769;28;20990;-75
2021/01/17 06:01:18;;;;;;;27.83;19.43;;;;;;;-144.99;97.03;52582.63;5062478;28;20948;-75
2021/01/17 06:03:52;;;;;;;25.60;17.50;;;;;;;-144.99;97.20;52586.69;5069072;28;20730;-76
2021/01/17 06:06:28;;;;;;;25.00;15.50;;;;;;;-144.99;97.20;52582.63;5066962;28;21594;-76
2021/01/17 06:08:56;;;;;;;28.23;19.80;;;;;;;-144.99;97.38;52582.63;5062838;28;20750;-73
2021/01/17 06:11:23;;;;;;;32.60;19.53;;;;;;;-144.99;97.31;52590.78;5067529;28;20651;-77
2021/01/17 06:13:54;;;;;;;31.73;19.37;;;;;;;-144.99;97.52;52609.13;5061556;28;20709;-77
2021/01/17 06:16:25;;;;;;;30.10;18.87;;;;;;;-144.99;97.45;52592.81;5069035;28;20741;-76
2021/01/17 06:18:57;;;;;;;28.60;18.97;;;;;;;-144.99;97.45;52611.16;5067624;28;20734;-75
2021/01/17 06:21:25;;;;;;;27.83;19.23;;;;;;;-144.99;97.39;52594.84;5068019;28;20650;-77
2021/01/17 06:23:55;;;;;;;29.10;18.30;;;;;;;-144.99;97.36;52619.31;5064460;28;20719;-77
2021/01/17 06:26:26;;;;;;;30.90;18.83;;;;;;;-144.99;97.57;52550.00;5063810;28;20729;-75
2021/01/17 06:28:52;;;;;;;30.10;16.97;;;;;;;-144.99;97.52;52578.53;5064512;28;20749;-74
2021/01/17 06:31:21;;;;;;;27.33;18.37;;;;;;;-144.99;97.50;52582.63;5058206;28;20722;-76
2021/01/17 06:33:49;;;;;;;29.67;18.80;;;;;;;-144.99;97.59;52570.38;5066180;28;20615;-75
2021/01/17 06:36:17;;;;;;;32.57;23.87;;;;;;;-144.99;97.60;52578.53;5052942;28;21200;-76
2021/01/17 06:38:44;;;;;;;29.60;18.63;;;;;;;-144.99;97.62;52558.16;5064438;28;20761;-77
2021/01/17 06:41:11;;;;;;;33.00;19.90;;;;;;;-144.99;97.72;52533.69;5067687;28;21344;-74
2021/01/17 06:43:41;;;;;;;33.07;19.90;;;;;;;-144.99;97.69;52586.69;5067541;28;20713;-75
2021/01/17 06:46:08;;;;;;;24.70;17.53;;;;;;;-144.99;97.71;52574.47;5068762;28;20663;-76
2021/01/17 06:48:34;;;;;;;24.47;17.47;;;;;;;-144.99;97.74;52570.38;5059592;28;20674;-75
2021/01/17 06:51:17;;;;;;;36.53;19.73;;;;;;;-144.99;97.90;52574.47;5065394;28;20898;-74
2021/01/17 06:53:52;;;;;;;27.03;17.73;;;;;;;-144.99;97.83;52554.09;5066247;28;20684;-74
2021/01/17 06:56:19;;;;;;;25.83;19.30;;;;;;;-144.99;97.96;52598.94;5070409;28;20650;-74
2021/01/17 06:58:46;;;;;;;28.37;17.57;;;;;;;-144.99;98.03;52603.00;5065510;28;21085;-72
2021/01/17 07:01:14;;;;;;;33.93;18.60;;;;;;;-144.99;98.38;52615.25;5069517;28;20634;-74
2021/01/17 07:03:53;;;;;;;29.17;19.07;;;;;;;-144.99;98.30;52566.31;5060466;28;20778;-74
2021/01/17 07:06:40;;;;;;;30.03;19.57;;;;;;;-144.99;98.25;52570.38;5062816;28;20734;-75
2021/01/17 07:09:09;;;;;;;30.90;21.07;;;;;;;-144.99;98.26;52603.00;5061584;28;20650;-74
2021/01/17 07:12:00;;;;;;;28.20;18.33;;;;;;;-144.99;98.22;52566.31;5065697;28;20627;-74
2021/01/17 07:14:28;;;;;;;27.30;18.30;;;;;;;-144.99;98.26;52558.16;5062236;28;20729;-72
2021/01/17 07:16:58;;;;;;;33.97;18.63;;;;;;;-144.99;98.44;52607.09;5065742;28;20677;-74
2021/01/17 07:19:32;;;;;;;30.13;19.37;;;;;;;-144.99;98.49;52594.84;5062703;28;20750;-75
2021/01/17 07:22:06;;;;;;;29.97;17.83;;;;;;;-144.99;98.65;52584.66;5067269;28;20772;-75
2021/01/17 07:24:34;;;;;;;38.43;22.87;;;;;;;-144.99;98.88;52562.25;5067330;28;20729;-77
2021/01/17 07:27:14;;;;;;;32.27;19.40;;;;;;;-144.99;98.67;52558.16;5059291;28;20715;-77
2021/01/17 07:29:43;;;;;;;33.70;21.53;;;;;;;-144.99;98.50;52574.47;5074639;22;20698;-73
2021/01/17 07:32:30;;;;;;;31.23;20.67;;;;;;;-144.99;98.32;52578.53;5059906;28;20642;-72
2021/01/17 07:35:06;;;;;;;27.73;20.63;;;;;;;-144.99;98.18;52578.53;5057263;28;20634;-74
2021/01/17 07:37:33;;;;;;;30.80;20.00;;;;;;;-144.99;98.00;52594.84;5060367;28;20711;-72
2021/01/17 07:40:07;;;;;;;31.67;19.60;;;;;;;-144.99;97.87;52590.78;5061079;28;20678;-74
2021/01/17 07:42:34;;;;;;;28.23;19.90;;;;;;;-144.99;97.78;52574.47;5063620;28;20627;-73
2021/01/17 07:45:17;;;;;;;32.30;19.30;;;;;;;-144.99;97.85;52594.84;5069022;28;20656;-73
2021/01/17 07:47:44;;;;;;;31.67;19.60;;;;;;;-144.99;97.86;52572.44;5064383;28;20633;-73
2021/01/17 07:50:13;;;;;;;28.80;19.80;;;;;;;-144.99;97.81;52578.53;5068788;28;20675;-72
2021/01/17 07:52:52;;;;;;;29.03;19.50;;;;;;;-144.99;97.90;52558.16;5061346;28;20628;-73
2021/01/17 07:55:20;;;;;;;27.30;19.30;;;;;;;-144.99;97.91;52578.53;5069292;28;20654;-73
2021/01/17 07:57:50;;;;;;;27.80;16.97;;;;;;;-144.99;97.97;52537.78;5059712;28;20667;-74
2021/01/17 08:00:23;;;;;;;29.77;21.67;;;;;;;-144.99;97.94;52586.69;5061203;28;20691;-74
2021/01/17 08:02:49;;;;;;;28.73;20.03;;;;;;;-144.99;97.95;52545.94;5067749;28;20651;-74
2021/01/17 08:05:16;;;;;;;29.17;19.30;;;;;;;-144.99;98.02;52582.63;5057075;28;20726;-74
2021/01/17 08:07:43;;;;;;;28.40;19.00;;;;;;;-144.99;97.93;52590.78;5060749;28;20659;-74
2021/01/17 08:10:09;;;;;;;24.73;16.67;;;;;;;-144.99;98.09;52541.84;5059639;28;20698;-73
2021/01/17 08:12:42;;;;;;;26.77;17.60;;;;;;;-144.99;98.07;52594.84;5074569;28;20635;-74
2021/01/17 08:15:30;;;;;;;33.17;19.80;;;;;;;-144.99;98.31;52580.59;5065128;28;20632;-74
2021/01/17 08:17:57;;;;;;;31.73;20.40;;;;;;;-144.99;98.00;52578.53;5075761;28;20687;-73
2021/01/17 08:20:27;;;;;;;26.43;18.07;;;;;;;-144.99;97.63;52607.09;5070776;28;20678;-73
2021/01/17 08:23:11;;;;;;;28.30;19.50;;;;;;;-144.99;98.26;52566.31;5078058;28;21176;-74
2021/01/17 08:25:55;;;;;;;29.90;21.27;;;;;;;-144.99;98.44;52570.38;5079220;28;20631;-74
2021/01/17 08:28:39;;;;;;;26.97;18.63;;;;;;;-144.99;96.22;52554.09;5077388;28;20638;-73
2021/01/17 08:31:32;;;;;;;33.50;21.17;;;;;;;-144.99;95.32;52584.66;5056147;28;20667;-74
2021/01/17 08:34:07;;;;;;;34.73;20.90;;;;;;;-144.99;95.56;52611.16;5048268;28;20638;-73
2021/01/17 08:36:33;;;;;;;33.57;19.57;;;;;;;-144.99;95.48;52582.63;5053625;28;20665;-73
2021/01/17 08:39:00;;;;;;;30.10;17.77;;;;;;;-144.99;95.14;52558.16;5067724;28;20683;-73
2021/01/17 08:41:27;;;;;;;32.80;19.67;;;;;;;-144.99;95.02;52570.38;5078751;28;20642;-73
2021/01/17 08:43:55;;;;;;;30.53;20.97;;;;;;;-144.99;94.85;52550.00;5071174;28;20638;-75
2021/01/17 08:46:33;;;;;;;28.53;19.70;;;;;;;-144.99;94.66;52545.94;5079661;28;20695;-74
2021/01/17 08:49:00;;;;;;;30.37;22.73;;;;;;;-144.99;94.68;52590.78;5067776;28;20642;-73
2021/01/17 08:51:26;;;;;;;28.77;22.63;;;;;;;-144.99;94.62;52594.84;5064619;28;20765;-74
2021/01/17 08:53:53;;;;;;;29.50;19.40;;;;;;;-144.99;94.51;52574.47;5061030;28;20816;-74
2021/01/17 08:56:23;;;;;;;28.47;18.73;;;;;;;-144.99;94.26;52550.00;5062750;28;20738;-74
2021/01/17 08:58:53;;;;;;;30.43;19.33;;;;;;;-144.99;94.18;52586.69;5071820;28;20757;-76
2021/01/17 09:01:21;;;;;;;26.53;19.37;;;;;;;-144.99;94.25;52582.63;5066986;28;20611;-74
2021/01/17 09:03:58;;;;;;;29.00;20.47;;;;;;;-144.99;94.09;52545.94;5085007;28;20635;-75
2021/01/17 09:06:29;;;;;;;28.80;18.63;;;;;;;-144.99;93.75;52574.47;5081429;28;20620;-75
2021/01/17 09:09:11;;;;;;;27.63;20.63;;;;;;;-144.99;93.73;52592.81;5075671;28;20653;-74
2021/01/17 09:11:40;;;;;;;27.23;20.53;;;;;;;-144.99;93.68;52562.25;5083606;28;20626;-75
2021/01/17 09:14:28;;;;;;;28.33;18.93;;;;;;;-144.99;93.24;52566.31;5072385;28;20636;-74
2021/01/17 09:16:57;;;;;;;30.73;19.47;;;;;;;-144.99;93.17;52562.25;5064148;28;21242;-76
2021/01/17 09:19:26;;;;;;;26.93;18.23;;;;;;;-144.99;92.80;52562.25;5057359;28;20759;-75
2021/01/17 09:21:54;;;;;;;30.37;20.37;;;;;;;-144.99;92.96;52558.16;5060891;28;20662;-75
2021/01/17 09:24:21;;;;;;;32.97;21.93;;;;;;;-144.99;92.66;52627.47;5067304;28;20619;-75
2021/01/17 09:26:51;;;;;;;28.13;19.47;;;;;;;-144.99;92.41;52531.66;5057071;28;20992;-76
2021/01/17 09:29:32;;;;;;;33.83;20.57;;;;;;;-144.99;92.21;52570.38;5055772;28;20702;-74
2021/01/17 09:32:01;;;;;;;32.97;19.77;;;;;;;-144.99;91.77;52566.31;5063143;28;20754;-75
2021/01/17 09:34:30;;;;;;;32.10;19.73;;;;;;;-144.99;91.54;52578.53;5058417;28;20632;-74
2021/01/17 09:36:57;;;;;;;27.73;19.20;;;;;;;-144.99;91.13;52578.53;5056083;28;20639;-75
2021/01/17 09:39:35;;;;;;;25.90;17.57;;;;;;;-144.99;91.23;52592.81;5054350;28;21089;-75
2021/01/17 09:42:04;;;;;;;28.57;19.53;;;;;;;-144.99;90.16;52562.25;5058825;28;20692;-74
2021/01/17 09:44:31;;;;;;;23.97;17.83;;;;;;;-144.99;89.82;52537.78;5067202;28;20650;-75
2021/01/17 09:46:58;;;;;;;29.20;18.63;;;;;;;-144.99;89.78;52552.03;5058816;28;20632;-74
2021/01/17 09:49:26;;;;;;;26.47;18.83;;;;;;;-144.99;89.46;52545.94;5063121;28;20735;-74
2021/01/17 09:51:53;;;;;;;28.63;20.10;;;;;;;-144.99;89.22;52552.03;5057727;28;20623;-74
2021/01/17 09:54:19;;;;;;;25.67;17.77;;;;;;;-144.99;88.54;52541.84;5065798;28;21705;-75
2021/01/17 09:56:46;;;;;;;32.27;17.73;;;;;;;-144.99;87.92;52533.69;5065325;28;20729;-76
2021/01/17 09:59:18;;;;;;;36.00;19.43;;;;;;;-144.99;87.44;52574.47;5071807;28;20835;-75
2021/01/17 10:01:46;;;;;;;23.57;17.10;;;;;;;-144.99;87.24;52570.38;5058981;28;20643;-75
2021/01/17 10:04:23;;;;;;;24.93;16.13;;;;;;;-144.99;86.64;52590.78;5060372;28;20623;-75
2021/01/17 10:06:51;;;;;;;23.07;16.67;;;;;;;-144.99;85.91;52562.25;5060511;28;20638;-73
2021/01/17 10:09:18;;;;;;;23.93;17.43;;;;;;;-144.99;84.82;52533.69;5058685;28;20687;-75
2021/01/17 10:11:45;;;;;;;23.07;16.60;;;;;;;-144.99;84.31;52582.63;5063588;28;20620;-75
2021/01/17 10:14:12;;;;;;;22.90;16.27;;;;;;;-144.99;83.66;52539.81;5069375;28;20620;-75
2021/01/17 10:16:39;;;;;;;27.50;18.37;;;;;;;-144.99;83.71;52558.16;5076239;28;20624;-78
2021/01/17 10:19:06;;;;;;;20.27;13.27;;;;;;;-144.99;85.23;52578.53;5063790;28;21278;-74
2021/01/17 10:21:38;;;;;;;22.57;16.33;;;;;;;-144.99;84.02;52568.34;5067424;28;20670;-73
2021/01/17 10:24:05;;;;;;;23.90;16.13;;;;;;;-144.99;82.29;52529.63;5055481;28;20627;-77
2021/01/17 10:26:33;;;;;;;22.90;16.47;;;;;;;-144.99;81.42;52525.56;5058716;28;20643;-75
2021/01/17 10:29:05;;;;;;;24.27;15.90;;;;;;;-144.99;80.97;52537.78;5065329;28;21037;-74
2021/01/17 10:31:35;;;;;;;23.47;14.13;;;;;;;-144.99;80.56;52533.69;5060877;28;20616;-74
2021/01/17 10:34:01;;;;;;;25.30;15.07;;;;;;;-144.99;80.47;52550.00;5064117;28;21174;-72
2021/01/17 10:36:27;;;;;;;19.43;14.60;;;;;;;-144.99;79.79;52513.31;5061229;28;20646;-75
2021/01/17 10:38:54;;;;;;;26.60;16.03;;;;;;;-144.99;79.62;52513.31;5055851;28;21310;-73
2021/01/17 10:41:26;;;;;;;25.67;14.93;;;;;;;-144.99;78.64;52517.41;5057126;28;20670;-73
2021/01/17 10:44:03;;;;;;;23.03;13.80;;;;;;;-144.99;78.07;52488.84;5070566;28;20622;-74
2021/01/17 10:46:30;;;;;;;21.60;14.50;;;;;;;-144.99;76.54;52472.56;5057659;28;20620;-74
2021/01/17 10:49:05;;;;;;;22.93;16.47;;;;;;;-144.99;73.78;52501.09;5066534;28;20672;-74
2021/01/17 10:51:39;;;;;;;21.87;14.90;;;;;;;-144.99;72.68;52509.25;5067064;28;20610;-73
2021/01/17 10:54:06;;;;;;;26.50;15.10;;;;;;;-144.99;72.33;52497.00;5065535;28;20670;-75
2021/01/17 10:56:33;;;;;;;21.70;15.53;;;;;;;-144.99;70.98;52484.78;5065178;28;20631;-74
2021/01/17 10:59:01;;;;;;;26.07;15.23;;;;;;;-144.99;69.51;52476.63;5062023;28;20750;-76
2021/01/17 11:01:31;;;;;;;19.73;13.73;;;;;;;-144.99;69.43;52545.94;5059097;28;21259;-73
2021/01/17 11:03:59;;;;;;;19.80;14.67;;;;;;;-144.99;69.69;52472.56;5053607;28;20651;-73
2021/01/17 11:06:29;;;;;;;20.40;13.90;;;;;;;-144.99;69.02;52415.47;5062090;28;20721;-73
2021/01/17 11:08:57;;;;;;;17.53;12.60;;;;;;;-144.99;66.69;52411.41;5061515;28;20619;-73
2021/01/17 11:11:27;;;;;;;20.60;12.77;;;;;;;-144.99;64.71;52419.56;5071042;28;20614;-73